Time;durP1;ratioP1;P1;durP2;ratioP2;P2;SDS_P1;SDS_P2;PMS_P1;PMS_P2;Temp;Humidity;BMP_temperature;BMP_pressure;BME280_temperature;BME280_humidity;BME280_pressure;Samples;Min_cycle;Max_cycle;Signal;HPM_P1;HPM_P2
2022/11/24 00:01:04;;;;;;;2.65;1.30;;;4.50;99.90;;;;;;5052365;28;20222;-70
2022/11/24 00:03:32;;;;;;;1.30;1.20;;;4.50;99.90;;;;;;5054857;28;20218;-68
2022/11/24 00:06:03;;;;;;;4.50;2.10;;;4.40;99.90;;;;;;5073083;28;20197;-69
2022/11/24 00:08:30;;;;;;;2.80;1.38;;;4.40;99.90;;;;;;5073264;28;20205;-70
2022/11/24 00:11:02;;;;;;;2.78;1.75;;;4.40;99.90;;;;;;5072335;28;20228;-68
2022/11/24 00:13:29;;;;;;;1.25;1.15;;;4.50;99.90;;;;;;5073441;28;20209;-70
2022/11/24 00:16:04;;;;;;;3.92;1.83;;;4.50;99.90;;;;;;5073146;28;20211;-70
2022/11/24 00:18:32;;;;;;;2.70;1.20;;;4.50;99.90;;;;;;5072702;28;20614;-69
2022/11/24 00:20:59;;;;;;;1.60;1.40;;;4.40;99.90;;;;;;5072457;28;20235;-70
2022/11/24 00:23:26;;;;;;;2.35;1.50;;;4.40;99.90;;;;;;5072816;28;20201;-69
2022/11/24 00:25:52;;;;;;;2.70;1.40;;;4.30;99.90;;;;;;5072794;28;20228;-70
2022/11/24 00:28:19;;;;;;;4.50;1.45;;;4.30;99.90;;;;;;5072623;28;20197;-70
2022/11/24 00:30:46;;;;;;;2.50;1.70;;;4.30;99.90;;;;;;5072247;28;20470;-70
2022/11/24 00:33:12;;;;;;;1.80;1.50;;;4.30;99.90;;;;;;5072530;28;20205;-70
2022/11/24 00:35:40;;;;;;;2.03;1.25;;;4.20;99.90;;;;;;5072419;28;20201;-70
2022/11/24 00:38:07;;;;;;;2.50;1.70;;;4.20;99.90;;;;;;5072329;28;20205;-70
2022/11/24 00:40:34;;;;;;;2.72;1.48;;;4.10;99.90;;;;;;5072140;28;20596;-70
2022/11/24 00:43:01;;;;;;;3.35;1.52;;;4.00;99.90;;;;;;5072429;28;20210;-70
2022/11/24 00:45:27;;;;;;;2.15;1.45;;;4.00;99.90;;;;;;5072360;28;20544;-70
2022/11/24 00:47:54;;;;;;;2.75;1.50;;;3.90;99.90;;;;;;5072282;28;20197;-70
2022/11/24 00:50:21;;;;;;;1.50;1.25;;;3.80;99.90;;;;;;5071395;28;20222;-69
2022/11/24 00:52:49;;;;;;;1.92;1.30;;;3.80;99.90;;;;;;5072417;28;20212;-69
2022/11/24 00:55:16;;;;;;;2.75;1.50;;;3.70;99.90;;;;;;5072429;28;20201;-69
2022/11/24 00:57:42;;;;;;;4.45;1.63;;;3.70;99.90;;;;;;5072347;28;20207;-70
2022/11/24 01:00:10;;;;;;;1.20;1.10;;;3.70;99.90;;;;;;5071374;28;20236;-70
2022/11/24 01:02:36;;;;;;;3.88;1.65;;;3.60;99.90;;;;;;5071262;28;20208;-69
2022/11/24 01:05:03;;;;;;;5.25;2.22;;;3.70;99.90;;;;;;5071300;28;20213;-70
2022/11/24 01:07:31;;;;;;;2.15;1.20;;;3.70;99.90;;;;;;5071545;28;20695;-69
2022/11/24 01:09:59;;;;;;;6.47;1.92;;;3.60;99.90;;;;;;5071132;28;20197;-68
2022/11/24 01:12:25;;;;;;;2.65;1.48;;;3.60;99.90;;;;;;5070786;28;20655;-70
2022/11/24 01:14:52;;;;;;;1.95;1.50;;;3.60;99.90;;;;;;5071411;28;20208;-70
2022/11/24 01:17:19;;;;;;;2.50;1.45;;;3.60;99.90;;;;;;5070910;28;20201;-70
2022/11/24 01:19:46;;;;;;;2.22;1.42;;;3.60;99.90;;;;;;5071155;28;20221;-70
2022/11/24 01:22:12;;;;;;;4.53;1.42;;;3.60;99.90;;;;;;5070247;28;20244;-70
2022/11/24 01:24:39;;;;;;;2.22;1.70;;;3.60;99.90;;;;;;5071119;28;20213;-70
2022/11/24 01:27:07;;;;;;;5.03;1.70;;;3.60;99.90;;;;;;5071209;28;20203;-69
2022/11/24 01:29:34;;;;;;;4.03;1.75;;;3.60;99.90;;;;;;5075247;28;20193;-69
2022/11/24 01:32:01;;;;;;;2.85;1.90;;;3.60;99.90;;;;;;5070531;28;20224;-69
2022/11/24 01:34:28;;;;;;;1.67;1.20;;;3.60;99.90;;;;;;5070802;28;20209;-70
2022/11/24 01:36:54;;;;;;;1.98;1.40;;;3.70;99.90;;;;;;5070780;28;20713;-70
2022/11/24 01:39:21;;;;;;;2.50;1.45;;;3.70;99.90;;;;;;5070497;28;20225;-69
2022/11/24 01:41:48;;;;;;;3.47;1.30;;;3.90;99.90;;;;;;5070107;28;20221;-70
2022/11/24 01:44:24;;;;;;;2.92;1.50;;;4.00;99.90;;;;;;5070565;28;20303;-70
2022/11/24 01:46:55;;;;;;;1.98;1.52;;;4.10;99.90;;;;;;5070502;28;20215;-70
2022/11/24 01:49:26;;;;;;;4.55;1.50;;;4.20;99.90;;;;;;5071945;28;20200;-69
2022/11/24 01:51:59;;;;;;;1.30;0.95;;;4.30;99.90;;;;;;5073940;28;20229;-70
2022/11/24 01:54:30;;;;;;;1.85;1.42;;;4.30;99.90;;;;;;5075020;28;20212;-70
2022/11/24 01:57:00;;;;;;;3.67;1.75;;;4.40;99.90;;;;;;5075754;28;20216;-70
2022/11/24 01:59:30;;;;;;;4.35;1.60;;;4.40;99.90;;;;;;5075277;28;20232;-69
2022/11/24 02:01:57;;;;;;;1.50;1.30;;;4.50;99.90;;;;;;5074657;28;20221;-68
2022/11/24 02:04:27;;;;;;;11.63;1.58;;;4.60;99.90;;;;;;5074747;28;20234;-70
2022/11/24 02:06:56;;;;;;;2.97;1.50;;;4.70;99.90;;;;;;5075866;28;20205;-70
2022/11/24 02:09:29;;;;;;;1.90;1.55;;;4.80;99.90;;;;;;5075071;28;20195;-69
2022/11/24 02:11:58;;;;;;;2.20;1.90;;;4.90;99.90;;;;;;5075085;28;20221;-69
2022/11/24 02:14:26;;;;;;;1.35;1.15;;;5.00;99.90;;;;;;5074237;28;20208;-69
2022/11/24 02:16:54;;;;;;;2.75;1.30;;;5.10;99.90;;;;;;5074089;28;20205;-70
2022/11/24 02:19:29;;;;;;;3.53;1.75;;;5.20;99.90;;;;;;5074008;28;20311;-70
2022/11/24 02:21:56;;;;;;;6.18;1.70;;;5.20;99.90;;;;;;5073408;28;20226;-70
2022/11/24 02:24:29;;;;;;;1.75;1.42;;;5.30;99.90;;;;;;5073848;28;20205;-70
2022/11/24 02:26:57;;;;;;;3.63;1.45;;;5.30;99.90;;;;;;5073767;28;20580;-70
2022/11/24 02:29:24;;;;;;;2.50;1.35;;;5.30;99.90;;;;;;5073687;28;20220;-70
2022/11/24 02:31:56;;;;;;;2.60;1.73;;;5.30;99.90;;;;;;5073132;28;20241;-70
2022/11/24 02:34:22;;;;;;;2.08;1.45;;;5.30;99.90;;;;;;5073716;28;20686;-70
2022/11/24 02:36:49;;;;;;;1.40;1.00;;;5.40;99.90;;;;;;5073891;28;20216;-70
2022/11/24 02:39:16;;;;;;;10.65;1.90;;;5.30;99.90;;;;;;5073140;28;20217;-70
2022/11/24 02:41:46;;;;;;;1.75;1.10;;;5.30;99.90;;;;;;5073213;28;20230;-69
2022/11/24 02:44:17;;;;;;;4.32;1.50;;;5.30;99.90;;;;;;5073236;28;20207;-69
2022/11/24 02:46:43;;;;;;;2.33;1.33;;;5.30;99.90;;;;;;5073758;28;20202;-69
2022/11/24 02:49:10;;;;;;;3.47;1.88;;;5.30;99.90;;;;;;5073338;28;20205;-70
2022/11/24 02:51:37;;;;;;;2.30;1.25;;;5.30;99.90;;;;;;5073160;28;20887;-70
2022/11/24 02:54:04;;;;;;;3.80;1.60;;;5.30;99.90;;;;;;5073426;28;20201;-69
2022/11/24 02:56:30;;;;;;;2.05;1.30;;;5.20;99.90;;;;;;5073440;28;20201;-69
2022/11/24 02:58:57;;;;;;;3.60;1.45;;;5.20;99.90;;;;;;5073256;28;20568;-69
2022/11/24 03:01:25;;;;;;;3.03;1.35;;;5.10;99.90;;;;;;5072523;28;20232;-68
2022/11/24 03:03:52;;;;;;;1.67;1.40;;;5.10;99.90;;;;;;5073412;28;20221;-69
2022/11/24 03:06:18;;;;;;;1.40;1.10;;;5.00;99.90;;;;;;5073219;28;20201;-69
2022/11/24 03:08:45;;;;;;;5.85;2.28;;;5.00;99.90;;;;;;5073270;28;20553;-70
2022/11/24 03:11:12;;;;;;;5.93;1.40;;;5.00;99.90;;;;;;5072625;28;20236;-70
2022/11/24 03:13:39;;;;;;;2.05;1.52;;;5.00;99.90;;;;;;5073043;28;20595;-69
2022/11/24 03:16:09;;;;;;;3.72;1.63;;;5.00;99.90;;;;;;5073198;28;20206;-70
2022/11/24 03:18:37;;;;;;;4.25;1.10;;;5.00;99.90;;;;;;5072795;28;20738;-69
2022/11/24 03:21:03;;;;;;;2.13;1.35;;;5.00;99.90;;;;;;5072326;28;20229;-69
2022/11/24 03:23:30;;;;;;;2.35;1.00;;;5.00;99.90;;;;;;5073026;28;20205;-70
2022/11/24 03:26:07;;;;;;;2.00;1.33;;;5.00;99.90;;;;;;5072871;28;20204;-70
2022/11/24 03:28:34;;;;;;;2.53;1.30;;;5.00;99.90;;;;;;5073156;28;20262;-70
2022/11/24 03:31:01;;;;;;;2.20;1.30;;;5.00;99.90;;;;;;5071995;28;20223;-70
2022/11/24 03:33:28;;;;;;;1.42;1.10;;;4.90;99.90;;;;;;5072902;28;20220;-68
2022/11/24 03:35:56;;;;;;;3.58;1.85;;;4.90;99.90;;;;;;5072867;28;20683;-69
2022/11/24 03:38:23;;;;;;;3.08;1.33;;;4.90;99.90;;;;;;5072699;28;20232;-70
2022/11/24 03:40:49;;;;;;;1.40;1.30;;;4.90;99.90;;;;;;5072085;28;20226;-70
2022/11/24 03:43:16;;;;;;;2.33;1.20;;;4.90;99.90;;;;;;5072369;28;20665;-70
2022/11/24 03:45:45;;;;;;;4.93;1.40;;;5.00;99.90;;;;;;5072802;28;20208;-69
2022/11/24 03:48:13;;;;;;;3.85;1.63;;;4.90;99.90;;;;;;5072306;28;20202;-69
2022/11/24 03:50:39;;;;;;;1.20;1.10;;;4.90;99.90;;;;;;5072005;28;20633;-69
2022/11/24 03:53:07;;;;;;;3.28;1.25;;;5.00;99.90;;;;;;5073463;28;20206;-69
2022/11/24 03:55:34;;;;;;;2.88;1.70;;;5.00;99.90;;;;;;5073384;28;20684;-70
2022/11/24 03:58:01;;;;;;;1.55;1.20;;;5.00;99.90;;;;;;5073208;28;20205;-69
2022/11/24 04:00:28;;;;;;;2.10;1.63;;;5.00;99.90;;;;;;5118870;22;20229;-68
2022/11/24 04:02:54;;;;;;;3.47;1.85;;;5.00;99.90;;;;;;5012164;28;20213;-68
2022/11/24 04:05:21;;;;;;;1.70;1.08;;;5.00;99.90;;;;;;5012494;28;20585;-68
2022/11/24 04:07:48;;;;;;;2.10;1.40;;;4.90;99.90;;;;;;5012229;28;20203;-68
2022/11/24 04:10:16;;;;;;;3.53;1.45;;;4.90;99.90;;;;;;5011983;28;20216;-68
2022/11/24 04:12:45;;;;;;;3.70;1.38;;;4.90;99.90;;;;;;5010881;28;20337;-68
2022/11/24 04:15:12;;;;;;;1.25;0.98;;;4.90;99.90;;;;;;5012296;28;20196;-68
2022/11/24 04:17:39;;;;;;;1.60;1.50;;;4.90;99.90;;;;;;5011993;28;20291;-68
2022/11/24 04:20:07;;;;;;;1.85;1.50;;;5.00;99.90;;;;;;5011904;28;20227;-65
2022/11/24 04:22:34;;;;;;;1.75;1.30;;;5.10;99.90;;;;;;5011843;28;20203;-65
2022/11/24 04:25:01;;;;;;;2.58;1.42;;;5.10;99.90;;;;;;5012198;28;20206;-66
2022/11/24 04:27:29;;;;;;;5.03;1.65;;;5.20;99.90;;;;;;5012168;28;20230;-65
2022/11/24 04:29:56;;;;;;;3.75;1.45;;;5.30;99.90;;;;;;5011314;28;20210;-69
2022/11/24 04:32:22;;;;;;;4.55;1.50;;;5.30;99.90;;;;;;5011365;28;20199;-69
2022/11/24 04:34:49;;;;;;;2.45;1.25;;;5.30;99.90;;;;;;5011091;28;20223;-68
2022/11/24 04:37:16;;;;;;;3.67;1.80;;;5.20;99.90;;;;;;5017638;28;20199;-68
2022/11/24 04:39:43;;;;;;;3.17;1.35;;;5.20;99.90;;;;;;5022393;28;20212;-68
2022/11/24 04:42:10;;;;;;;2.35;1.30;;;5.20;99.90;;;;;;5021049;28;20706;-68
2022/11/24 04:44:38;;;;;;;3.38;1.30;;;5.20;99.90;;;;;;5020860;28;20195;-68
2022/11/24 04:47:05;;;;;;;4.72;1.40;;;5.20;99.90;;;;;;5018477;28;20195;-68
2022/11/24 04:49:32;;;;;;;3.58;1.55;;;5.20;99.90;;;;;;5021084;28;20187;-69
2022/11/24 04:51:59;;;;;;;5.55;1.70;;;5.10;99.90;;;;;;5023976;28;20221;-68
2022/11/24 04:54:26;;;;;;;2.45;1.55;;;5.20;99.90;;;;;;5031120;28;20192;-68
2022/11/24 04:56:53;;;;;;;1.85;1.17;;;5.10;99.90;;;;;;5030663;28;20204;-69
2022/11/24 04:59:20;;;;;;;7.40;2.30;;;5.10;99.90;;;;;;5030188;28;20206;-68
2022/11/24 05:01:48;;;;;;;3.83;1.40;;;5.10;99.90;;;;;;5029733;28;20231;-68
2022/11/24 05:04:16;;;;;;;2.05;1.20;;;5.10;99.90;;;;;;5030382;28;20302;-68
2022/11/24 05:06:43;;;;;;;2.95;1.70;;;5.10;99.90;;;;;;5031167;28;20203;-68
2022/11/24 05:09:14;;;;;;;4.38;1.60;;;5.10;99.90;;;;;;5031617;28;20198;-68
2022/11/24 05:11:41;;;;;;;3.65;1.40;;;5.00;99.90;;;;;;5030425;28;20226;-67
2022/11/24 05:14:08;;;;;;;2.53;1.25;;;5.00;99.90;;;;;;5031358;28;20261;-69
2022/11/24 05:16:36;;;;;;;2.47;1.52;;;5.00;99.90;;;;;;5031221;28;20207;-68
2022/11/24 05:19:04;;;;;;;2.05;1.27;;;4.90;99.90;;;;;;5031800;28;20293;-70
2022/11/24 05:21:30;;;;;;;3.13;1.85;;;5.00;99.90;;;;;;5030239;28;20453;-67
2022/11/24 05:23:57;;;;;;;5.47;1.73;;;4.90;99.90;;;;;;5026160;28;20202;-67
2022/11/24 05:26:24;;;;;;;4.53;1.42;;;4.80;99.90;;;;;;5016575;28;20205;-67
2022/11/24 05:28:51;;;;;;;1.73;1.20;;;4.80;99.90;;;;;;5014746;28;20218;-67
2022/11/24 05:31:17;;;;;;;5.35;1.40;;;4.80;99.90;;;;;;5009822;28;20211;-67
2022/11/24 05:33:44;;;;;;;4.10;1.60;;;4.80;99.90;;;;;;5010126;28;20216;-67
2022/11/24 05:36:51;;;;;;;1.90;1.45;;;4.90;99.90;;;;;;5010425;28;20203;-67
2022/11/24 05:38:59;;;;;;;1.25;1.02;;;4.90;99.90;;;;;;5008806;28;20284;-67
2022/11/24 05:41:26;;;;;;;3.92;2.00;;;4.90;99.90;;;;;;5009613;28;20227;-67
2022/11/24 05:43:53;;;;;;;3.30;1.55;;;4.90;99.90;;;;;;5010117;28;20203;-67
2022/11/24 05:46:19;;;;;;;1.88;1.63;;;4.90;99.90;;;;;;5010407;28;20198;-67
2022/11/24 05:48:46;;;;;;;1.70;1.48;;;4.90;99.90;;;;;;5009387;28;20203;-67
2022/11/24 05:51:14;;;;;;;3.63;1.60;;;4.90;99.90;;;;;;5010619;28;20375;-67
2022/11/24 05:53:41;;;;;;;5.20;1.75;;;4.90;99.90;;;;;;5010502;28;20617;-66
2022/11/24 05:56:08;;;;;;;4.00;1.25;;;5.00;99.90;;;;;;5010623;28;20203;-67
2022/11/24 05:58:35;;;;;;;2.17;1.40;;;5.00;99.90;;;;;;5010540;28;20695;-67
2022/11/24 06:01:06;;;;;;;3.88;1.55;;;5.00;99.90;;;;;;5009648;28;20226;-67
2022/11/24 06:03:32;;;;;;;3.13;1.40;;;5.10;99.90;;;;;;5010692;28;20200;-67
2022/11/24 06:05:59;;;;;;;2.00;1.23;;;5.10;99.90;;;;;;5010555;28;20202;-67
2022/11/24 06:08:27;;;;;;;2.30;1.38;;;5.20;99.90;;;;;;5010697;28;20747;-68
2022/11/24 06:10:54;;;;;;;2.85;1.70;;;5.20;99.90;;;;;;5009564;28;20228;-67
2022/11/24 06:13:21;;;;;;;2.25;1.50;;;5.20;99.90;;;;;;5010679;28;20630;-67
2022/11/24 06:15:47;;;;;;;2.67;1.50;;;5.30;99.90;;;;;;5010268;28;20207;-67
2022/11/24 06:18:14;;;;;;;4.25;1.70;;;5.30;99.90;;;;;;5010638;28;20210;-67
2022/11/24 06:20:41;;;;;;;3.95;2.25;;;5.30;99.90;;;;;;5009553;28;20250;-66
2022/11/24 06:23:08;;;;;;;2.33;1.30;;;5.30;99.90;;;;;;5010213;28;20196;-66
2022/11/24 06:25:36;;;;;;;4.50;1.55;;;5.40;99.90;;;;;;5010304;28;20602;-67
2022/11/24 06:28:05;;;;;;;1.98;1.30;;;5.40;99.90;;;;;;5010372;28;20212;-67
2022/11/24 06:30:32;;;;;;;5.97;1.65;;;5.50;99.90;;;;;;5009899;28;20219;-67
2022/11/24 06:32:59;;;;;;;3.10;1.88;;;5.50;99.90;;;;;;5010456;28;20212;-67
2022/11/24 06:35:25;;;;;;;3.17;1.75;;;5.50;99.90;;;;;;5012161;28;20212;-68
2022/11/24 06:37:52;;;;;;;3.50;1.20;;;5.60;99.90;;;;;;5013739;28;20207;-67
2022/11/24 06:40:19;;;;;;;2.00;1.55;;;5.60;99.90;;;;;;5013251;28;20238;-67
2022/11/24 06:42:51;;;;;;;2.72;1.15;;;5.70;99.90;;;;;;5013982;28;20203;-68
2022/11/24 06:45:18;;;;;;;5.35;1.80;;;5.70;99.90;;;;;;5013865;28;20749;-67
2022/11/24 06:47:44;;;;;;;2.97;1.70;;;5.70;99.90;;;;;;5013707;28;20205;-66
2022/11/24 06:50:11;;;;;;;3.63;2.22;;;5.70;99.90;;;;;;5013654;28;20225;-67
2022/11/24 06:52:38;;;;;;;6.97;2.10;;;5.70;99.90;;;;;;5013564;28;20659;-68
2022/11/24 06:55:06;;;;;;;5.32;2.38;;;5.80;99.90;;;;;;5013740;28;20220;-68
2022/11/24 06:57:34;;;;;;;5.75;2.05;;;5.70;99.90;;;;;;5014168;28;20212;-68
2022/11/24 07:00:02;;;;;;;4.00;2.33;;;5.80;99.90;;;;;;5013762;28;20227;-67
2022/11/24 07:02:29;;;;;;;2.63;1.73;;;5.80;99.90;;;;;;5013372;28;20203;-66
2022/11/24 07:04:55;;;;;;;5.75;1.48;;;5.80;99.90;;;;;;5013794;28;20213;-66
2022/11/24 07:07:22;;;;;;;3.47;1.75;;;5.80;99.90;;;;;;5013683;28;20203;-67
2022/11/24 07:09:49;;;;;;;5.45;1.80;;;5.80;99.90;;;;;;5013275;28;20682;-67
2022/11/24 07:12:16;;;;;;;4.68;1.70;;;5.80;99.90;;;;;;5012966;28;20227;-68
2022/11/24 07:14:46;;;;;;;4.60;1.88;;;5.80;99.90;;;;;;5013729;28;20207;-69
2022/11/24 07:17:14;;;;;;;3.92;1.70;;;5.80;99.90;;;;;;5014728;28;20209;-65
2022/11/24 07:19:40;;;;;;;6.10;1.67;;;5.80;99.90;;;;;;5014467;28;20203;-67
2022/11/24 07:22:07;;;;;;;3.30;1.30;;;5.80;99.90;;;;;;5013953;28;20232;-66
2022/11/24 07:24:34;;;;;;;3.45;2.00;;;5.90;99.90;;;;;;5014969;28;20207;-66
2022/11/24 07:27:01;;;;;;;1.70;1.40;;;5.90;99.90;;;;;;5014695;28;20584;-67
2022/11/24 07:29:27;;;;;;;4.32;1.50;;;6.00;99.90;;;;;;5014556;28;20203;-66
2022/11/24 07:31:54;;;;;;;3.47;2.08;;;6.00;99.90;;;;;;5014001;28;20227;-67
2022/11/24 07:34:22;;;;;;;2.72;1.40;;;6.00;99.90;;;;;;5014651;28;20203;-67
2022/11/24 07:39:19;;;;;;;2.00;1.30;;;6.00;99.90;;;;;;5088624;22;20259;-68
2022/11/24 07:41:45;;;;;;;4.15;2.30;;;6.10;99.90;;;;;;5066601;28;20225;-68
2022/11/24 07:44:12;;;;;;;3.33;1.55;;;6.10;99.90;;;;;;5072769;28;20208;-68
2022/11/24 07:46:39;;;;;;;5.88;1.73;;;6.10;99.90;;;;;;5071152;28;20201;-68
2022/11/24 07:49:05;;;;;;;4.38;1.50;;;6.20;99.90;;;;;;5072610;28;20197;-69
2022/11/24 07:51:35;;;;;;;3.05;1.42;;;6.20;99.90;;;;;;5071755;28;20213;-69
2022/11/24 07:54:02;;;;;;;4.53;1.85;;;6.20;99.90;;;;;;5072813;28;20613;-68
2022/11/24 07:56:29;;;;;;;4.30;1.80;;;6.20;99.90;;;;;;5072509;28;20849;-68
2022/11/24 07:58:55;;;;;;;2.80;1.50;;;6.30;99.90;;;;;;5072122;28;20200;-68
2022/11/24 08:01:22;;;;;;;4.00;1.80;;;6.30;99.90;;;;;;5067307;28;20254;-68
2022/11/24 08:03:49;;;;;;;3.72;1.50;;;6.30;99.90;;;;;;5068911;28;20214;-68
2022/11/24 08:06:17;;;;;;;2.75;1.77;;;6.30;99.90;;;;;;5071663;28;20204;-68
2022/11/24 08:08:45;;;;;;;1.92;1.33;;;6.40;99.90;;;;;;5062843;28;20290;-68
2022/11/24 08:11:15;;;;;;;2.95;1.50;;;6.30;99.90;;;;;;5050880;28;20232;-68
2022/11/24 08:13:42;;;;;;;3.97;1.45;;;6.40;99.90;;;;;;5051220;28;20673;-68
2022/11/24 08:16:10;;;;;;;2.78;1.02;;;6.30;99.90;;;;;;5051588;28;20198;-68
2022/11/24 08:18:38;;;;;;;6.25;1.35;;;6.40;99.90;;;;;;5051501;28;20685;-69
2022/11/24 08:21:08;;;;;;;5.47;1.25;;;6.30;99.90;;;;;;5050608;28;20609;-68
2022/11/24 08:23:34;;;;;;;1.90;1.42;;;6.40;99.90;;;;;;5051233;28;20289;-69
2022/11/24 08:26:07;;;;;;;2.60;1.20;;;6.40;99.90;;;;;;5051693;28;20207;-69
2022/11/24 08:28:36;;;;;;;1.77;1.30;;;6.40;99.90;;;;;;5051328;28;20208;-69
2022/11/24 08:31:04;;;;;;;3.15;1.33;;;6.30;99.90;;;;;;5051422;28;20221;-67
2022/11/24 08:33:31;;;;;;;4.93;1.80;;;6.30;99.90;;;;;;5050951;28;20201;-68
2022/11/24 08:36:04;;;;;;;4.10;1.10;;;6.30;99.90;;;;;;5051755;28;20296;-68
2022/11/24 08:38:30;;;;;;;1.65;1.42;;;6.40;99.90;;;;;;5051247;28;20213;-68
2022/11/24 08:41:00;;;;;;;1.70;0.90;;;6.40;99.90;;;;;;5050534;28;20233;-68
2022/11/24 08:43:28;;;;;;;1.73;1.30;;;6.40;99.90;;;;;;5051115;28;20259;-68
2022/11/24 08:45:59;;;;;;;1.60;1.20;;;6.50;99.90;;;;;;5050535;28;20297;-69
2022/11/24 08:48:25;;;;;;;1.35;0.88;;;6.50;99.90;;;;;;5051626;28;20570;-68
2022/11/24 08:50:52;;;;;;;1.48;1.10;;;6.50;99.90;;;;;;5050202;28;20221;-67
2022/11/24 08:53:19;;;;;;;3.50;1.45;;;6.50;99.90;;;;;;5051024;28;20687;-68
2022/11/24 08:55:46;;;;;;;3.47;1.10;;;6.40;99.90;;;;;;5050858;28;20205;-68
2022/11/24 08:58:12;;;;;;;1.55;1.00;;;6.50;99.90;;;;;;5050132;28;20201;-67
2022/11/24 09:00:41;;;;;;;3.20;1.23;;;6.50;99.90;;;;;;5049394;28;20228;-67
2022/11/24 09:03:10;;;;;;;3.60;1.20;;;6.50;99.90;;;;;;5050770;28;20672;-67
2022/11/24 09:05:37;;;;;;;1.15;0.95;;;6.50;99.90;;;;;;5050872;28;20232;-67
2022/11/24 09:08:04;;;;;;;0.80;0.73;;;6.50;99.90;;;;;;5050371;28;20202;-67
2022/11/24 09:10:31;;;;;;;1.13;0.85;;;6.60;99.90;;;;;;5049504;28;20598;-68
2022/11/24 09:12:58;;;;;;;1.50;1.15;;;6.60;99.90;;;;;;5050535;28;20202;-67
2022/11/24 09:15:24;;;;;;;1.25;0.80;;;6.70;99.90;;;;;;5050532;28;20206;-68
2022/11/24 09:17:52;;;;;;;1.23;0.90;;;6.60;99.90;;;;;;5050050;28;20204;-68
2022/11/24 09:20:20;;;;;;;0.80;0.80;;;6.70;99.90;;;;;;5049783;28;20221;-67
2022/11/24 09:22:47;;;;;;;1.05;0.80;;;6.70;99.90;;;;;;5049564;28;20245;-68
2022/11/24 09:25:13;;;;;;;6.70;1.00;;;6.70;99.90;;;;;;5049994;28;20206;-68
2022/11/24 09:27:40;;;;;;;3.08;1.23;;;6.80;99.90;;;;;;5050297;28;20665;-67
2022/11/24 09:30:08;;;;;;;3.30;1.00;;;6.90;99.90;;;;;;5049641;28;20215;-67
2022/11/24 09:32:36;;;;;;;1.33;0.90;;;6.80;99.90;;;;;;5049397;28;20236;-68
2022/11/24 09:35:06;;;;;;;1.90;0.82;;;6.90;99.90;;;;;;5049124;28;20209;-67
2022/11/24 09:37:32;;;;;;;0.95;0.80;;;6.90;99.90;;;;;;5049617;28;20206;-68
2022/11/24 09:39:59;;;;;;;0.90;0.70;;;6.80;99.90;;;;;;5050006;28;20212;-67
2022/11/24 09:42:35;;;;;;;1.55;1.05;;;6.70;99.90;;;;;;5049584;28;20221;-68
2022/11/24 09:45:15;;;;;;;2.85;1.00;;;6.80;99.90;;;;;;5048918;28;20208;-67
2022/11/24 09:47:55;;;;;;;1.50;1.08;;;6.80;99.90;;;;;;5036121;28;20202;-67
2022/11/24 09:50:25;;;;;;;1.35;0.93;;;6.80;99.90;;;;;;5041077;28;20214;-67
2022/11/24 09:52:59;;;;;;;1.65;1.08;;;7.00;99.90;;;;;;5049508;28;20205;-66
2022/11/24 09:55:33;;;;;;;1.17;1.08;;;7.00;99.90;;;;;;5049828;28;20211;-66
2022/11/24 09:58:14;;;;;;;1.10;0.90;;;7.30;99.90;;;;;;5050088;28;20221;-67
2022/11/24 10:00:41;;;;;;;0.88;0.77;;;7.80;99.90;;;;;;5048833;28;20294;-67
2022/11/24 10:03:16;;;;;;;1.00;0.90;;;8.80;99.90;;;;;;5049677;28;20208;-68
2022/11/24 10:05:45;;;;;;;1.10;0.98;;;9.00;99.90;;;;;;5049014;28;20331;-68
2022/11/24 10:08:27;;;;;;;1.10;0.82;;;9.00;99.90;;;;;;5049893;28;20208;-67
2022/11/24 10:10:58;;;;;;;1.98;1.27;;;8.70;99.90;;;;;;5050877;28;20231;-67
2022/11/24 10:13:41;;;;;;;1.55;0.80;;;8.70;99.90;;;;;;5053332;28;20201;-67
2022/11/24 10:16:18;;;;;;;1.60;1.10;;;8.60;99.90;;;;;;5053684;28;20205;-66
2022/11/24 10:18:56;;;;;;;1.15;0.90;;;8.30;99.90;;;;;;5053144;28;20215;-67
2022/11/24 10:21:43;;;;;;;1.65;1.27;;;8.10;99.90;;;;;;5052789;28;20232;-67
2022/11/24 10:24:31;;;;;;;1.25;0.80;;;9.40;99.90;;;;;;5052996;28;20590;-68
2022/11/24 10:27:01;;;;;;;1.10;0.88;;;10.60;99.90;;;;;;5053539;28;20255;-68
2022/11/24 10:29:34;;;;;;;1.05;0.80;;;11.30;99.90;;;;;;5053019;28;20205;-68
2022/11/24 10:32:05;;;;;;;1.00;0.80;;;12.30;99.90;;;;;;5051979;28;20221;-67
2022/11/24 10:34:34;;;;;;;0.95;0.70;;;13.50;99.90;;;;;;5053675;28;20217;-68
2022/11/24 10:37:08;;;;;;;0.88;0.73;;;13.60;99.90;;;;;;5052923;28;20233;-67
2022/11/24 10:39:40;;;;;;;1.00;0.90;;;13.40;99.90;;;;;;5053229;28;20206;-68
2022/11/24 10:42:15;;;;;;;1.48;0.90;;;12.70;99.90;;;;;;5052809;28;20367;-67
2022/11/24 10:44:43;;;;;;;0.90;0.70;;;11.80;99.90;;;;;;5052278;28;20208;-67
2022/11/24 10:47:18;;;;;;;1.98;0.70;;;10.80;99.90;;;;;;5052617;28;20206;-66
2022/11/24 10:49:52;;;;;;;1.00;0.90;;;10.60;99.90;;;;;;5052875;28;20208;-67
2022/11/24 10:52:22;;;;;;;0.90;0.80;;;10.50;99.90;;;;;;5052078;28;20218;-68
2022/11/24 10:54:57;;;;;;;1.80;0.90;;;12.10;99.90;;;;;;5053151;28;20198;-68
2022/11/24 10:57:28;;;;;;;0.97;0.77;;;14.60;99.90;;;;;;5053069;28;20205;-68
2022/11/24 10:59:55;;;;;;;1.63;0.85;;;15.00;99.90;;;;;;5052074;28;20463;-67
2022/11/24 11:02:32;;;;;;;1.55;1.00;;;14.10;99.90;;;;;;5052511;28;20870;-68
2022/11/24 11:04:59;;;;;;;1.20;0.80;;;13.00;99.90;;;;;;5052733;28;20205;-67
2022/11/24 11:07:27;;;;;;;0.90;0.80;;;12.30;99.90;;;;;;5052760;28;20202;-68
2022/11/24 11:10:19;;;;;;;0.90;0.80;;;11.70;99.90;;;;;;5052271;28;20201;-68
2022/11/24 11:12:46;;;;;;;1.33;1.10;;;12.10;99.90;;;;;;5051882;28;20651;-68
2022/11/24 11:15:27;;;;;;;3.53;1.20;;;14.60;99.90;;;;;;5053303;28;20226;-67
2022/11/24 11:17:57;;;;;;;0.90;0.80;;;17.30;99.90;;;;;;5052960;28;20452;-67
2022/11/24 11:20:29;;;;;;;0.90;0.70;;;19.50;99.90;;;;;;5052707;28;20491;-68
2022/11/24 11:22:59;;;;;;;1.23;0.77;;;20.50;99.90;;;;;;5053423;28;20913;-68
2022/11/24 11:25:30;;;;;;;1.17;0.90;;;20.20;99.90;;;;;;5053469;28;20464;-68
2022/11/24 11:28:19;;;;;;;1.30;0.80;;;19.50;99.90;;;;;;5052792;28;20527;-67
2022/11/24 11:30:57;;;;;;;0.90;0.70;;;19.40;99.90;;;;;;5051986;28;20539;-68
2022/11/24 11:33:27;;;;;;;1.90;1.00;;;19.40;99.90;;;;;;5053730;28;20452;-68
2022/11/24 11:35:54;;;;;;;1.77;1.13;;;17.80;99.90;;;;;;5052170;28;20554;-67
2022/11/24 11:38:23;;;;;;;2.30;0.90;;;15.80;99.90;;;;;;5052844;28;20471;-67
2022/11/24 11:40:52;;;;;;;2.80;0.93;;;14.00;99.90;;;;;;5051720;28;20875;-67
2022/11/24 11:43:25;;;;;;;3.93;1.17;;;12.90;99.90;;;;;;5052297;28;20480;-67
2022/11/24 11:46:02;;;;;;;2.67;1.10;;;12.10;99.90;;;;;;5052045;28;20460;-66
2022/11/24 11:48:32;;;;;;;1.10;0.82;;;11.50;99.90;;;;;;5052604;28;20482;-68
2022/11/24 11:51:04;;;;;;;1.20;1.00;;;11.20;99.90;;;;;;5051457;28;20225;-67
2022/11/24 11:53:43;;;;;;;1.20;0.88;;;11.00;99.90;;;;;;5051918;28;20210;-67
2022/11/24 11:56:21;;;;;;;0.95;0.85;;;10.90;99.90;;;;;;5052564;28;20201;-67
2022/11/24 11:59:30;;;;;;;1.30;0.80;;;10.70;99.90;;;;;;5051685;28;20209;-67
2022/11/24 12:02:27;;;;;;;1.88;1.08;;;10.40;99.90;;;;;;5050891;28;20264;-67
2022/11/24 12:04:59;;;;;;;2.65;1.00;;;10.20;99.90;;;;;;5050344;28;20222;-67
2022/11/24 12:07:38;;;;;;;3.00;1.17;;;10.10;99.90;;;;;;5048748;28;20213;-67
2022/11/24 12:10:17;;;;;;;1.10;0.80;;;10.00;99.90;;;;;;5050010;28;20209;-68
2022/11/24 12:13:03;;;;;;;2.10;0.80;;;9.90;99.90;;;;;;5050753;28;20697;-67
2022/11/24 12:15:36;;;;;;;3.58;1.25;;;9.80;99.90;;;;;;5052009;28;20205;-68
2022/11/24 12:18:13;;;;;;;3.42;1.00;;;9.90;99.90;;;;;;5052630;28;20205;-67
2022/11/24 12:20:54;;;;;;;3.33;1.10;;;9.90;99.90;;;;;;5050666;28;20218;-67
2022/11/24 12:23:31;;;;;;;2.13;1.20;;;9.80;99.90;;;;;;5051880;28;20225;-68
2022/11/24 12:26:05;;;;;;;1.02;0.93;;;9.70;99.90;;;;;;5051304;28;20215;-68
2022/11/24 12:28:42;;;;;;;2.15;1.20;;;9.70;99.90;;;;;;5051049;28;20207;-67
2022/11/24 12:31:19;;;;;;;1.08;0.80;;;9.60;99.90;;;;;;5050760;28;20229;-67
2022/11/24 12:34:15;;;;;;;2.63;1.23;;;9.60;99.90;;;;;;5050399;28;20201;-68
2022/11/24 12:36:57;;;;;;;2.85;1.38;;;9.60;99.90;;;;;;5048713;28;20673;-67
2022/11/24 12:39:32;;;;;;;1.67;1.00;;;9.60;99.90;;;;;;5050729;28;20224;-68
2022/11/24 12:42:08;;;;;;;5.63;1.70;;;9.70;99.90;;;;;;5050001;28;20235;-68
2022/11/24 12:44:56;;;;;;;2.08;1.05;;;9.70;99.90;;;;;;5050851;28;20590;-68
2022/11/24 12:47:29;;;;;;;3.22;1.55;;;9.70;99.90;;;;;;5050957;28;20204;-67
2022/11/24 12:50:07;;;;;;;4.05;1.45;;;9.70;99.90;;;;;;5050065;28;20227;-67
2022/11/24 12:52:38;;;;;;;3.45;1.38;;;9.70;99.90;;;;;;5050450;28;20197;-66
2022/11/24 12:55:12;;;;;;;2.78;1.60;;;9.80;99.90;;;;;;5051174;28;20209;-68
2022/11/24 12:57:44;;;;;;;3.67;1.50;;;9.70;99.90;;;;;;5050241;28;20207;-67
2022/11/24 13:00:20;;;;;;;2.03;1.10;;;9.80;99.90;;;;;;5050729;28;20202;-67
2022/11/24 13:03:04;;;;;;;2.63;1.35;;;9.70;99.90;;;;;;5049903;28;20225;-67
2022/11/24 13:05:41;;;;;;;1.40;1.25;;;9.90;99.90;;;;;;5050763;28;20205;-67
2022/11/24 13:08:08;;;;;;;1.77;1.50;;;10.20;99.90;;;;;;5050776;28;20583;-68
2022/11/24 13:10:36;;;;;;;3.53;1.25;;;11.00;99.90;;;;;;5050083;28;20229;-67